Terminal Aerodrome Forecast
Issued by NWS

Home | Current Version | Previous Version | Text Only | Print | Product List | Glossary On
Versions: 1 2 3 4 5 6 7 8 9 10 11 12 13 14 15 16
000
FTUS45 KRIW 220524
TAFPNA
TAF
KPNA 220524Z 2206/2306 30004KT P6SM VCFG SCT003
     FM221600 VRB04KT P6SM SCT100 BKN250
     FM221800 30006KT P6SM VCSH SCT035 BKN050
     FM230500 30006KT P6SM BKN050
      AMD LTD TO CLD VIS AND WIND=

USA.gov is the U.S. government's official web portal to all federal, state and local government web resources and services.